Time,TemperatureF,DewpointF,PressureIn,WindDirection,WindDirectionDegrees,WindSpeedMPH,WindSpeedGustMPH,Humidity,HourlyPrecipIn,Conditions,Clouds,dailyrainin,SoftwareType,DateUTC
2013-08-01 00:11:00,59.9,49.0,30.09,WSW,256,0.0,1.0,67,0.00,,,0.00,weatherlink.com 1.10,2013-08-01 05:11:00,
2013-08-01 00:26:00,59.9,48.0,30.09,WSW,256,0.0,1.0,66,0.00,,,0.00,weatherlink.com 1.10,2013-08-01 05:26:00,
2013-08-01 00:41:00,60.3,49.0,30.09,WSW,255,0.0,1.0,66,0.00,,,0.00,weatherlink.com 1.10,2013-08-01 05:41:00,
2013-08-01 00:56:00,60.1,49.0,30.09,WSW,256,0.0,1.0,66,0.00,,,0.00,weatherlink.com 1.10,2013-08-01 05:56:00,
2013-08-01 01:26:00,59.0,49.0,30.09,WSW,242,0.0,1.0,69,0.00,,,0.00,weatherlink.com 1.10,2013-08-01 06:26:00,
2013-08-01 01:41:00,58.8,49.0,30.09,WSW,252,0.0,1.0,70,0.00,,,0.00,weatherlink.com 1.10,2013-08-01 06:41:00,
2013-08-01 01:56:00,58.6,49.0,30.09,West,259,1.0,1.0,71,0.00,,,0.00,weatherlink.com 1.10,2013-08-01 06:56:00,
2013-08-01 02:11:00,58.4,49.0,30.09,WSW,242,0.0,1.0,72,0.00,,,0.00,weatherlink.com 1.10,2013-08-01 07:11:00,
2013-08-01 02:26:00,57.9,49.0,30.09,WSW,246,0.0,1.0,73,0.00,,,0.00,weatherlink.com 1.10,2013-08-01 07:26:00,
2013-08-01 02:41:00,57.8,49.0,30.09,WSW,248,0.0,1.0,73,0.00,,,0.00,weatherlink.com 1.10,2013-08-01 07:41:00,
2013-08-01 02:56:00,57.4,49.0,30.09,SW,236,1.0,1.0,74,0.00,,,0.00,weatherlink.com 1.10,2013-08-01 07:56:00,
2013-08-01 03:11:00,57.3,49.0,30.09,WSW,250,1.0,1.0,75,0.00,,,0.00,weatherlink.com 1.10,2013-08-01 08:11:00,
2013-08-01 03:26:00,57.7,49.0,30.09,WSW,253,1.0,2.0,74,0.00,,,0.00,weatherlink.com 1.10,2013-08-01 08:26:00,
2013-08-01 04:11:00,57.8,49.0,30.09,West,261,0.0,1.0,73,0.00,,,0.00,weatherlink.com 1.10,2013-08-01 09:11:00,
2013-08-01 04:41:00,57.1,49.0,30.09,West,262,0.0,1.0,74,0.00,,,0.00,weatherlink.com 1.10,2013-08-01 09:41:00,
2013-08-01 05:11:00,56.9,49.0,30.08,WSW,255,0.0,1.0,75,0.00,,,0.00,weatherlink.com 1.10,2013-08-01 10:11:00,
2013-08-01 06:26:00,55.5,49.0,30.08,SW,218,0.0,0.0,79,0.00,,,0.00,weatherlink.com 1.10,2013-08-01 11:26:00,
2013-08-01 06:41:00,55.6,49.0,30.09,SW,229,0.0,1.0,78,0.00,,,0.00,weatherlink.com 1.10,2013-08-01 11:41:00,
2013-08-01 06:56:00,55.6,49.0,30.09,SW,229,0.0,1.0,79,0.00,,,0.00,weatherlink.com 1.10,2013-08-01 11:56:00,
2013-08-01 07:26:00,56.0,50.0,30.08,SW,229,0.0,1.0,81,0.00,,,0.00,weatherlink.com 1.10,2013-08-01 12:26:00,
2013-08-01 07:41:00,58.2,51.0,30.08,SW,229,0.0,1.0,77,0.00,,,0.00,weatherlink.com 1.10,2013-08-01 12:41:00,
2013-08-01 07:56:00,58.7,51.0,30.08,SW,229,0.0,1.0,76,0.00,,,0.00,weatherlink.com 1.10,2013-08-01 12:56:00,
2013-08-01 08:11:00,59.9,52.0,30.08,SW,229,0.0,0.0,75,0.00,,,0.00,weatherlink.com 1.10,2013-08-01 13:11:00,
2013-08-01 08:27:00,62.0,52.0,30.07,WSW,246,0.0,1.0,70,0.00,,,0.00,weatherlink.com 1.10,2013-08-01 13:27:00,
2013-08-01 08:42:00,63.4,52.0,30.07,West,263,0.0,1.0,67,0.00,,,0.00,weatherlink.com 1.10,2013-08-01 13:42:00,
2013-08-01 09:27:00,67.1,53.0,30.07,West,266,0.0,1.0,62,0.00,,,0.00,weatherlink.com 1.10,2013-08-01 14:27:00,
2013-08-01 09:42:00,68.0,53.0,30.07,NW,315,0.0,3.0,59,0.00,,,0.00,weatherlink.com 1.10,2013-08-01 14:42:00,
2013-08-01 09:57:00,69.0,53.0,30.07,SW,229,1.0,2.0,58,0.00,,,0.00,weatherlink.com 1.10,2013-08-01 14:57:00,
2013-08-01 10:12:00,69.6,54.0,30.07,WNW,300,2.0,2.0,57,0.00,,,0.00,weatherlink.com 1.10,2013-08-01 15:12:00,
2013-08-01 10:42:00,72.4,55.0,30.07,West,262,0.0,4.0,55,0.00,,,0.00,weatherlink.com 1.10,2013-08-01 15:42:00,
2013-08-01 10:57:00,73.0,55.0,30.07,WNW,284,0.0,4.0,53,0.00,,,0.00,weatherlink.com 1.10,2013-08-01 15:57:00,
2013-08-01 11:27:00,74.8,52.0,30.07,WSW,249,1.0,4.0,45,0.00,,,0.00,weatherlink.com 1.10,2013-08-01 16:27:00,
2013-08-01 11:42:00,75.3,54.0,30.07,WNW,295,1.0,3.0,47,0.00,,,0.00,weatherlink.com 1.10,2013-08-01 16:42:00,
2013-08-01 11:57:00,75.7,51.0,30.06,West,262,1.0,7.0,42,0.00,,,0.00,weatherlink.com 1.10,2013-08-01 16:57:00,
2013-08-01 12:42:00,77.2,50.0,30.05,NW,311,6.0,11.0,39,0.00,,,0.00,weatherlink.com 1.10,2013-08-01 17:42:00,
2013-08-01 12:57:00,77.4,51.0,30.05,NNW,332,5.0,6.0,40,0.00,,,0.00,weatherlink.com 1.10,2013-08-01 17:57:00,
2013-08-01 13:28:00,78.3,49.0,30.03,West,264,1.0,4.0,36,0.00,,,0.00,weatherlink.com 1.10,2013-08-01 18:28:00,
2013-08-01 13:58:00,78.5,50.0,30.03,WNW,284,4.0,5.0,37,0.00,,,0.00,weatherlink.com 1.10,2013-08-01 18:58:00,
2013-08-01 14:28:00,78.0,52.0,30.02,WSW,239,2.0,5.0,40,0.00,,,0.00,weatherlink.com 1.10,2013-08-01 19:28:00,
2013-08-01 14:43:00,78.8,52.0,30.01,NW,307,2.0,5.0,39,0.00,,,0.00,weatherlink.com 1.10,2013-08-01 19:43:00,
2013-08-01 15:13:00,79.5,52.0,30.00,NW,314,3.0,6.0,39,0.00,,,0.00,weatherlink.com 1.10,2013-08-01 20:13:00,
2013-08-01 15:28:00,78.9,50.0,29.99,WSW,253,2.0,8.0,36,0.00,,,0.00,weatherlink.com 1.10,2013-08-01 20:28:00,
2013-08-01 15:43:00,78.7,50.0,29.99,West,276,0.0,8.0,37,0.00,,,0.00,weatherlink.com 1.10,2013-08-01 20:43:00,
2013-08-01 16:13:00,79.3,51.0,29.98,NNW,340,2.0,8.0,38,0.00,,,0.00,weatherlink.com 1.10,2013-08-01 21:13:00,
2013-08-01 16:28:00,79.4,52.0,29.98,WNW,302,4.0,10.0,38,0.00,,,0.00,weatherlink.com 1.10,2013-08-01 21:28:00,
2013-08-01 16:43:00,78.8,51.0,29.98,NW,314,7.0,9.0,38,0.00,,,0.00,weatherlink.com 1.10,2013-08-01 21:43:00,
2013-08-01 16:58:00,79.2,48.0,29.98,WNW,291,1.0,9.0,33,0.00,,,0.00,weatherlink.com 1.10,2013-08-01 21:58:00,
2013-08-01 17:13:00,79.1,48.0,29.98,WNW,301,2.0,13.0,33,0.00,,,0.00,weatherlink.com 1.10,2013-08-01 22:13:00,
2013-08-01 17:28:00,78.8,50.0,29.98,WNW,288,2.0,6.0,36,0.00,,,0.00,weatherlink.com 1.10,2013-08-01 22:28:00,
2013-08-01 17:43:00,78.9,49.0,29.97,WNW,282,2.0,9.0,35,0.00,,,0.00,weatherlink.com 1.10,2013-08-01 22:43:00,
2013-08-01 18:13:00,78.1,49.0,29.96,NW,319,3.0,10.0,36,0.00,,,0.00,weatherlink.com 1.10,2013-08-01 23:13:00,
2013-08-01 18:28:00,77.8,48.0,29.96,WNW,297,3.0,9.0,35,0.00,,,0.00,weatherlink.com 1.10,2013-08-01 23:28:00,
2013-08-01 18:43:00,76.4,48.0,29.96,NW,322,4.0,9.0,37,0.00,,,0.00,weatherlink.com 1.10,2013-08-01 23:43:00,
2013-08-01 18:58:00,76.6,48.0,29.96,WNW,293,5.0,8.0,37,0.00,,,0.00,weatherlink.com 1.10,2013-08-01 23:58:00,
2013-08-01 19:13:00,76.5,47.0,29.96,NNW,333,5.0,9.0,35,0.00,,,0.00,weatherlink.com 1.10,2013-08-02 00:13:00,
2013-08-01 19:28:00,75.8,48.0,29.96,North,360,4.0,6.0,38,0.00,,,0.00,weatherlink.com 1.10,2013-08-02 00:28:00,
2013-08-01 19:43:00,75.1,50.0,29.96,NNE,18,0.0,6.0,42,0.00,,,0.00,weatherlink.com 1.10,2013-08-02 00:43:00,
2013-08-01 20:13:00,73.5,51.0,29.96,North,349,0.0,6.0,45,0.00,,,0.00,weatherlink.com 1.10,2013-08-02 01:13:00,
2013-08-01 20:28:00,72.3,51.0,29.96,WNW,288,1.0,4.0,47,0.00,,,0.00,weatherlink.com 1.10,2013-08-02 01:28:00,
2013-08-01 20:43:00,70.9,51.0,29.97,WNW,295,0.0,1.0,50,0.00,,,0.00,weatherlink.com 1.10,2013-08-02 01:43:00,
2013-08-01 20:58:00,69.5,51.0,29.96,WNW,295,0.0,1.0,53,0.00,,,0.00,weatherlink.com 1.10,2013-08-02 01:58:00,
2013-08-01 21:28:00,67.3,51.0,29.98,WNW,291,0.0,1.0,57,0.00,,,0.00,weatherlink.com 1.10,2013-08-02 02:28:00,
2013-08-01 21:43:00,66.5,52.0,29.98,WNW,297,0.0,1.0,59,0.00,,,0.00,weatherlink.com 1.10,2013-08-02 02:43:00,
2013-08-01 21:58:00,66.0,51.0,29.98,WNW,298,0.0,0.0,59,0.00,,,0.00,weatherlink.com 1.10,2013-08-02 02:58:00,
2013-08-01 22:13:00,66.1,51.0,29.98,WNW,297,0.0,0.0,58,0.00,,,0.00,weatherlink.com 1.10,2013-08-02 03:13:00,
2013-08-01 22:28:00,65.4,51.0,29.99,West,266,0.0,1.0,60,0.00,,,0.00,weatherlink.com 1.10,2013-08-02 03:28:00,
2013-08-01 22:43:00,65.0,51.0,29.99,West,266,0.0,0.0,61,0.00,,,0.00,weatherlink.com 1.10,2013-08-02 03:43:00,
2013-08-01 23:13:00,63.7,51.0,29.98,West,266,0.0,0.0,64,0.00,,,0.00,weatherlink.com 1.10,2013-08-02 04:13:00,
2013-08-01 23:28:00,62.7,51.0,29.99,WSW,256,0.0,0.0,66,0.00,,,0.00,weatherlink.com 1.10,2013-08-02 04:28:00,
2013-08-01 23:43:00,62.4,52.0,29.99,West,259,0.0,0.0,68,0.00,,,0.00,weatherlink.com 1.10,2013-08-02 04:43:00,
2013-08-01 23:58:00,61.6,51.0,29.99,WSW,255,0.0,0.0,69,0.00,,,0.00,weatherlink.com 1.10,2013-08-02 04:58:00,